createdAt,value
2019-05-09T00:01:27.947Z,25.80
2019-05-09T00:03:59.003Z,25.80
2019-05-09T00:06:30.231Z,25.80
2019-05-09T00:09:03.569Z,25.80
2019-05-09T00:11:33.733Z,25.80
2019-05-09T00:14:04.883Z,25.90
2019-05-09T00:16:36.138Z,25.90
2019-05-09T00:19:07.157Z,25.90
2019-05-09T00:21:39.365Z,25.90
2019-05-09T00:24:10.295Z,26.00
2019-05-09T00:26:41.270Z,26.00
2019-05-09T00:29:14.035Z,26.00
2019-05-09T00:31:45.207Z,26.10
2019-05-09T00:34:17.409Z,26.10
2019-05-09T00:36:48.369Z,26.20
2019-05-09T00:39:38.659Z,26.30
2019-05-09T00:42:09.534Z,26.30
2019-05-09T00:44:43.136Z,26.40
2019-05-09T00:47:15.472Z,26.40
2019-05-09T00:49:46.382Z,26.50
2019-05-09T00:52:17.128Z,26.60
2019-05-09T00:54:48.981Z,26.70
2019-05-09T00:57:22.993Z,26.80
2019-05-09T00:59:53.133Z,26.80
2019-05-09T01:02:24.188Z,27.00
2019-05-09T01:04:55.158Z,27.10
2019-05-09T01:07:26.016Z,27.20
2019-05-09T01:09:57.113Z,27.30
2019-05-09T01:12:27.898Z,27.30
2019-05-09T01:14:58.848Z,27.50
2019-05-09T01:17:30.353Z,27.50
2019-05-09T01:20:03.349Z,27.60
2019-05-09T01:22:33.462Z,27.70
2019-05-09T01:25:04.377Z,27.80
2019-05-09T01:27:35.530Z,27.80
2019-05-09T01:30:07.309Z,27.90
2019-05-09T01:32:40.038Z,28.00
2019-05-09T01:35:13.034Z,28.10
2019-05-09T01:37:43.666Z,28.20
2019-05-09T01:40:14.758Z,28.30
2019-05-09T01:42:45.958Z,28.30
2019-05-09T01:45:17.077Z,28.30
2019-05-09T01:47:48.663Z,28.40
2019-05-09T01:50:19.855Z,28.50
2019-05-09T01:52:50.751Z,28.50
2019-05-09T01:55:23.470Z,28.50
2019-05-09T01:57:54.718Z,28.60
2019-05-09T02:00:25.575Z,28.70
2019-05-09T02:02:56.414Z,28.70
2019-05-09T02:05:28.276Z,28.70
2019-05-09T02:07:59.179Z,28.80
2019-05-09T02:10:29.992Z,28.80
2019-05-09T02:13:03.005Z,28.90
2019-05-09T02:15:34.647Z,28.90
2019-05-09T02:18:07.224Z,29.00
2019-05-09T02:20:38.031Z,29.00
2019-05-09T02:23:08.955Z,29.10
2019-05-09T02:25:39.940Z,29.20
2019-05-09T02:28:10.927Z,29.30
2019-05-09T02:30:44.760Z,29.40
2019-05-09T02:33:14.741Z,29.50
2019-05-09T02:35:55.826Z,29.50
2019-05-09T02:38:20.007Z,29.60
2019-05-09T02:40:50.435Z,29.60
2019-05-09T02:43:21.708Z,29.70
2019-05-09T02:45:54.108Z,29.80
2019-05-09T02:48:25.346Z,29.80
2019-05-09T02:50:59.809Z,29.90
2019-05-09T02:53:29.019Z,30.00
2019-05-09T02:56:00.351Z,30.00
2019-05-09T02:58:32.514Z,30.10
2019-05-09T03:01:04.863Z,30.20
2019-05-09T03:03:39.222Z,30.20
2019-05-09T03:06:09.478Z,30.30
2019-05-09T03:08:40.564Z,30.30
2019-05-09T03:11:11.514Z,30.40
2019-05-09T03:13:42.363Z,30.50
2019-05-09T03:16:15.086Z,30.50
2019-05-09T03:18:49.097Z,30.60
2019-05-09T03:21:19.701Z,30.60
2019-05-09T03:23:50.846Z,30.60
2019-05-09T03:26:23.190Z,30.50
2019-05-09T03:28:58.863Z,30.60
2019-05-09T03:31:29.844Z,30.60
2019-05-09T03:34:00.396Z,30.50
2019-05-09T03:36:32.382Z,30.50
2019-05-09T03:39:04.017Z,30.50
2019-05-09T03:41:35.042Z,30.50
2019-05-09T03:44:07.341Z,30.50
2019-05-09T03:46:40.075Z,30.50
2019-05-09T03:49:12.197Z,30.50
2019-05-09T03:51:42.978Z,30.60
2019-05-09T03:54:14.030Z,30.60
2019-05-09T03:56:47.910Z,30.60
2019-05-09T03:59:19.175Z,30.60
2019-05-09T04:01:50.418Z,30.70
2019-05-09T04:04:21.512Z,30.80
2019-05-09T04:06:53.404Z,30.90
2019-05-09T04:09:24.362Z,31.00
2019-05-09T04:11:55.265Z,31.20
2019-05-09T04:14:28.166Z,31.40
2019-05-09T04:16:59.262Z,31.50
2019-05-09T04:19:30.193Z,31.60
2019-05-09T04:22:02.436Z,31.70
2019-05-09T04:24:33.648Z,31.80
2019-05-09T04:27:07.794Z,31.90
2019-05-09T04:29:39.844Z,32.00
2019-05-09T04:32:11.025Z,32.00
2019-05-09T04:34:41.902Z,32.10
2019-05-09T04:37:12.993Z,32.10
2019-05-09T04:39:44.544Z,32.20
2019-05-09T04:42:15.362Z,32.30
2019-05-09T04:44:49.933Z,32.40
2019-05-09T04:47:19.817Z,32.50
2019-05-09T04:49:50.992Z,32.50
2019-05-09T04:52:22.105Z,32.60
2019-05-09T04:54:52.967Z,32.60
2019-05-09T04:57:23.981Z,32.70
2019-05-09T04:59:54.981Z,32.70
2019-05-09T05:02:27.590Z,32.70
2019-05-09T05:04:59.051Z,32.80
2019-05-09T05:07:29.846Z,32.80
2019-05-09T05:10:00.838Z,32.80
2019-05-09T05:12:32.024Z,32.90
2019-05-09T05:15:02.947Z,32.90
2019-05-09T05:17:33.921Z,32.90
2019-05-09T05:20:08.190Z,32.90
2019-05-09T05:22:40.211Z,33.00
2019-05-09T05:25:11.444Z,33.00
2019-05-09T05:27:42.075Z,33.10
2019-05-09T05:30:13.187Z,33.10
2019-05-09T05:32:45.366Z,33.20
2019-05-09T05:35:17.966Z,33.20
2019-05-09T05:37:48.844Z,33.30
2019-05-09T05:40:20.030Z,33.30
2019-05-09T05:42:51.125Z,33.40
2019-05-09T05:45:22.051Z,33.50
2019-05-09T05:47:54.448Z,33.60
2019-05-09T05:50:25.360Z,33.70
2019-05-09T05:52:57.788Z,33.80
2019-05-09T05:55:28.672Z,33.80
2019-05-09T05:57:59.692Z,33.90
2019-05-09T06:00:30.526Z,33.90
2019-05-09T06:03:01.766Z,33.90
2019-05-09T06:05:32.615Z,33.90
2019-05-09T06:08:03.556Z,33.90
2019-05-09T06:10:34.745Z,33.90
2019-05-09T06:13:07.801Z,33.90
2019-05-09T06:15:38.044Z,33.90
2019-05-09T06:18:09.652Z,34.00
2019-05-09T06:20:40.600Z,34.20
2019-05-09T06:23:11.533Z,34.30
2019-05-09T06:25:42.743Z,34.40
2019-05-09T06:28:13.631Z,34.50
2019-05-09T06:30:44.603Z,34.60
2019-05-09T06:33:18.090Z,34.60
2019-05-09T06:35:48.467Z,34.70
2019-05-09T06:38:19.426Z,34.60
2019-05-09T06:40:50.509Z,34.60
2019-05-09T06:43:22.626Z,34.50
2019-05-09T06:45:54.770Z,34.50
2019-05-09T06:48:25.802Z,34.40
2019-05-09T06:50:57.699Z,34.40
2019-05-09T06:53:29.030Z,34.40
2019-05-09T06:56:00.056Z,34.50
2019-05-09T06:58:32.377Z,34.50
2019-05-09T07:01:07.546Z,34.50
2019-05-09T07:03:38.919Z,34.40
2019-05-09T07:06:12.129Z,34.50
2019-05-09T07:08:42.957Z,34.50
2019-05-09T07:11:13.678Z,34.60
2019-05-09T07:13:47.149Z,34.60
2019-05-09T07:16:18.701Z,34.60
2019-05-09T07:18:49.601Z,34.70
2019-05-09T07:21:21.799Z,34.80
2019-05-09T07:23:52.706Z,34.90
2019-05-09T07:26:25.261Z,35.00
2019-05-09T07:28:56.121Z,35.00
2019-05-09T07:31:28.653Z,34.90
2019-05-09T07:34:00.821Z,34.90
2019-05-09T07:36:31.847Z,34.80
2019-05-09T07:39:02.659Z,34.70
2019-05-09T07:41:33.751Z,34.70
2019-05-09T07:44:04.747Z,34.60
2019-05-09T07:46:35.698Z,34.60
2019-05-09T07:49:08.576Z,34.50
2019-05-09T07:51:39.014Z,34.40
2019-05-09T07:54:21.914Z,34.30
2019-05-09T07:56:43.450Z,34.20
2019-05-09T07:59:14.536Z,34.10
2019-05-09T08:01:45.574Z,34.10
2019-05-09T08:04:18.242Z,34.00
2019-05-09T08:06:48.808Z,33.90
2019-05-09T08:09:19.553Z,33.90
2019-05-09T08:11:50.668Z,33.90
2019-05-09T08:14:21.346Z,33.90
2019-05-09T08:16:52.325Z,34.00
2019-05-09T08:19:23.416Z,34.00
2019-05-09T08:21:54.424Z,34.00
2019-05-09T08:24:27.557Z,34.00
2019-05-09T08:26:58.247Z,33.90
2019-05-09T08:29:29.384Z,33.90
2019-05-09T08:32:00.218Z,33.90
2019-05-09T08:34:31.326Z,33.80
2019-05-09T08:37:02.120Z,33.70
2019-05-09T08:39:32.943Z,33.60
2019-05-09T08:42:04.109Z,33.50
2019-05-09T08:44:35.058Z,33.40
2019-05-09T08:47:07.875Z,33.40
2019-05-09T08:49:39.815Z,33.30
2019-05-09T08:52:16.219Z,33.30
2019-05-09T08:54:45.643Z,33.20
2019-05-09T08:57:18.223Z,33.10
2019-05-09T08:59:50.827Z,33.10
2019-05-09T09:02:22.498Z,33.00
2019-05-09T09:04:53.726Z,32.90
2019-05-09T09:07:24.657Z,32.90
2019-05-09T09:09:57.596Z,32.80
2019-05-09T09:12:34.062Z,32.70
2019-05-09T09:15:00.407Z,32.60
2019-05-09T09:17:31.518Z,32.50
2019-05-09T09:20:02.875Z,32.30
2019-05-09T09:22:33.790Z,32.00
2019-05-09T09:25:04.807Z,31.50
2019-05-09T09:27:37.942Z,31.00
2019-05-09T09:30:20.803Z,30.50
2019-05-09T09:32:41.276Z,30.10
2019-05-09T09:35:12.610Z,29.80
2019-05-09T09:37:48.460Z,29.40
2019-05-09T09:40:17.698Z,29.00
2019-05-09T09:42:49.100Z,28.70
2019-05-09T09:45:20.160Z,28.40
2019-05-09T09:47:51.370Z,28.20
2019-05-09T09:50:22.242Z,28.00
2019-05-09T09:52:53.253Z,27.80
2019-05-09T09:55:24.200Z,27.60
2019-05-09T09:57:57.548Z,27.40
2019-05-09T10:00:31.943Z,27.30
2019-05-09T10:03:02.803Z,27.20
2019-05-09T10:05:33.802Z,27.10
2019-05-09T10:08:04.604Z,27.00
2019-05-09T10:10:38.212Z,26.90
2019-05-09T10:13:10.747Z,26.80
2019-05-09T10:15:42.704Z,26.60
2019-05-09T10:18:13.379Z,26.50
2019-05-09T10:20:45.439Z,26.40
2019-05-09T10:23:20.701Z,26.30
2019-05-09T10:25:48.780Z,26.20
2019-05-09T10:28:21.414Z,26.10
2019-05-09T10:30:52.588Z,26.10
2019-05-09T10:33:23.284Z,26.00
2019-05-09T10:35:54.295Z,25.90
2019-05-09T10:38:27.827Z,25.90
2019-05-09T10:41:00.940Z,25.90
2019-05-09T10:43:37.941Z,25.80
2019-05-09T10:46:05.310Z,25.80
2019-05-09T10:48:38.505Z,25.70
2019-05-09T10:51:10.605Z,25.70
2019-05-09T10:53:41.144Z,25.70
2019-05-09T10:56:12.006Z,25.60
2019-05-09T10:58:42.961Z,25.60
2019-05-09T11:01:14.060Z,25.50
2019-05-09T11:03:44.888Z,25.50
2019-05-09T11:06:18.026Z,25.50
2019-05-09T11:08:48.533Z,25.50
2019-05-09T11:11:19.478Z,25.50
2019-05-09T11:13:50.339Z,25.50
2019-05-09T11:16:21.337Z,25.50
2019-05-09T11:18:52.289Z,25.50
2019-05-09T11:21:23.116Z,25.50
2019-05-09T11:23:54.282Z,25.50
2019-05-09T11:26:25.219Z,25.50
2019-05-09T11:28:58.480Z,25.50
2019-05-09T11:31:29.436Z,25.50
2019-05-09T11:34:00.963Z,25.60
2019-05-09T11:36:31.741Z,25.60
2019-05-09T11:39:02.788Z,25.60
2019-05-09T11:41:33.643Z,25.50
2019-05-09T11:44:04.410Z,25.50
2019-05-09T11:46:37.978Z,25.50
2019-05-09T11:49:08.296Z,25.50
2019-05-09T11:51:39.805Z,25.50
2019-05-09T11:54:10.684Z,25.50
2019-05-09T11:56:41.599Z,25.50
2019-05-09T11:59:12.783Z,25.50
2019-05-09T12:01:43.560Z,25.50
2019-05-09T12:04:14.351Z,25.50
2019-05-09T12:06:45.700Z,25.40
2019-05-09T12:09:16.550Z,25.50
2019-05-09T12:11:48.500Z,25.40
2019-05-09T12:14:19.955Z,25.40
2019-05-09T12:16:50.731Z,25.40
2019-05-09T12:19:21.682Z,25.50
2019-05-09T12:21:52.889Z,25.50
2019-05-09T12:24:23.770Z,25.40
2019-05-09T12:26:54.690Z,25.40
2019-05-09T12:29:25.977Z,25.40
2019-05-09T12:31:57.611Z,25.50
2019-05-09T12:34:28.695Z,25.40
2019-05-09T12:36:59.740Z,25.40
2019-05-09T12:39:30.562Z,25.40
2019-05-09T12:42:01.832Z,25.40
2019-05-09T12:44:32.738Z,25.50
2019-05-09T12:47:03.529Z,25.40
2019-05-09T12:49:34.751Z,25.40
2019-05-09T12:52:08.055Z,25.40
2019-05-09T12:54:38.767Z,25.40
2019-05-09T12:57:10.197Z,25.50
2019-05-09T12:59:48.961Z,25.40
2019-05-09T13:02:13.589Z,25.40
2019-05-09T13:04:44.455Z,25.40
2019-05-09T13:07:15.402Z,25.50
2019-05-09T13:09:52.236Z,25.40
2019-05-09T13:12:18.617Z,25.40
2019-05-09T13:14:49.606Z,25.50
2019-05-09T13:17:22.120Z,25.50
2019-05-09T13:19:52.937Z,25.50
2019-05-09T13:22:23.918Z,25.50
2019-05-09T13:24:55.084Z,25.40
2019-05-09T13:27:28.447Z,25.40
2019-05-09T13:29:58.254Z,25.50
2019-05-09T13:32:29.416Z,25.40
2019-05-09T13:35:00.687Z,25.50
2019-05-09T13:37:31.675Z,25.40
2019-05-09T13:40:02.946Z,25.40
2019-05-09T13:42:34.103Z,25.40
2019-05-09T13:45:05.311Z,25.40
2019-05-09T13:47:38.016Z,25.40
2019-05-09T13:50:10.063Z,25.40
2019-05-09T13:52:41.056Z,25.40
2019-05-09T13:55:12.191Z,25.40
2019-05-09T13:57:43.350Z,25.40
2019-05-09T14:00:14.993Z,25.40
2019-05-09T14:02:48.499Z,25.40
2019-05-09T14:05:19.054Z,25.40
2019-05-09T14:07:54.744Z,25.40
2019-05-09T14:10:22.738Z,25.40
2019-05-09T14:13:05.878Z,25.40
2019-05-09T14:15:27.480Z,25.40
2019-05-09T14:17:58.474Z,25.40
2019-05-09T14:20:29.966Z,25.40
2019-05-09T14:23:00.937Z,25.40
2019-05-09T14:25:32.088Z,25.40
2019-05-09T14:28:03.557Z,25.40
2019-05-09T14:30:34.337Z,25.50
2019-05-09T14:33:08.017Z,25.40
2019-05-09T14:35:38.689Z,25.40
2019-05-09T14:38:10.143Z,25.40
2019-05-09T14:40:41.037Z,25.40
2019-05-09T14:43:12.088Z,25.50
2019-05-09T14:45:43.157Z,25.40
2019-05-09T14:48:14.034Z,25.40
2019-05-09T14:50:44.964Z,25.50
2019-05-09T14:53:18.060Z,25.40
2019-05-09T14:55:48.169Z,25.40
2019-05-09T14:58:19.174Z,25.40
2019-05-09T15:00:50.227Z,25.40
2019-05-09T15:03:21.341Z,25.40
2019-05-09T15:05:52.334Z,25.40
2019-05-09T15:08:23.408Z,25.40
2019-05-09T15:10:54.243Z,25.40
2019-05-09T15:13:25.548Z,25.40
2019-05-09T15:15:57.885Z,25.40
2019-05-09T15:18:28.647Z,25.30
2019-05-09T15:20:59.877Z,25.40
2019-05-09T15:23:30.794Z,25.40
2019-05-09T15:26:01.996Z,25.40
2019-05-09T15:28:32.772Z,25.30
2019-05-09T15:31:03.606Z,25.30
2019-05-09T15:33:34.588Z,25.40
2019-05-09T15:36:06.067Z,25.30
2019-05-09T15:38:37.967Z,25.40
2019-05-09T15:41:12.089Z,25.40
2019-05-09T15:43:41.632Z,25.40
2019-05-09T15:46:13.828Z,25.40
2019-05-09T15:48:44.911Z,25.40
2019-05-09T15:51:17.877Z,25.40
2019-05-09T15:53:48.663Z,25.40
2019-05-09T15:56:20.143Z,25.40
2019-05-09T15:58:51.079Z,25.40
2019-05-09T16:01:22.051Z,25.40
2019-05-09T16:03:53.135Z,25.40
2019-05-09T16:06:24.112Z,25.40
2019-05-09T16:08:55.122Z,25.40
2019-05-09T16:11:27.950Z,25.40
2019-05-09T16:13:58.453Z,25.40
2019-05-09T16:16:29.941Z,25.40
2019-05-09T16:19:00.947Z,25.40
2019-05-09T16:21:31.572Z,25.30
2019-05-09T16:24:02.784Z,25.30
2019-05-09T16:26:34.182Z,25.30
2019-05-09T16:29:05.123Z,25.30
2019-05-09T16:31:38.844Z,25.30
2019-05-09T16:34:09.412Z,25.30
2019-05-09T16:36:40.805Z,25.30
2019-05-09T16:39:11.713Z,25.30
2019-05-09T16:41:42.992Z,25.30
2019-05-09T16:44:14.086Z,25.30
2019-05-09T16:46:45.056Z,25.30
2019-05-09T16:49:17.550Z,25.30
2019-05-09T16:51:48.721Z,25.30
2019-05-09T16:54:19.739Z,25.30
2019-05-09T16:56:50.700Z,25.30
2019-05-09T16:59:21.856Z,25.30
2019-05-09T17:01:52.614Z,25.30
2019-05-09T17:04:23.499Z,25.30
2019-05-09T17:06:54.628Z,25.30
2019-05-09T17:09:25.538Z,25.20
2019-05-09T17:11:57.726Z,25.20
2019-05-09T17:14:28.567Z,25.20
2019-05-09T17:16:59.962Z,25.20
2019-05-09T17:19:30.943Z,25.20
2019-05-09T17:22:03.188Z,25.20
2019-05-09T17:24:34.515Z,25.20
2019-05-09T17:27:05.581Z,25.20
2019-05-09T17:29:38.256Z,25.20
2019-05-09T17:32:08.854Z,25.20
2019-05-09T17:34:42.271Z,25.20
2019-05-09T17:37:12.731Z,25.20
2019-05-09T17:39:43.653Z,25.30
2019-05-09T17:42:14.978Z,25.20
2019-05-09T17:44:48.584Z,25.30
2019-05-09T17:47:18.219Z,25.30
2019-05-09T17:49:49.045Z,25.30
2019-05-09T17:52:20.317Z,25.30
2019-05-09T17:54:51.063Z,25.30
2019-05-09T17:57:21.881Z,25.30
2019-05-09T17:59:52.969Z,25.30
2019-05-09T18:02:23.939Z,25.30
2019-05-09T18:04:55.024Z,25.30
2019-05-09T18:07:27.880Z,25.30
2019-05-09T18:09:58.213Z,25.30
2019-05-09T18:12:29.130Z,25.30
2019-05-09T18:15:00.135Z,25.30
2019-05-09T18:17:30.943Z,25.30
2019-05-09T18:20:02.197Z,25.30
2019-05-09T18:22:33.578Z,25.30
2019-05-09T18:25:04.608Z,25.30
2019-05-09T18:27:37.769Z,25.30
2019-05-09T18:30:09.082Z,25.30
2019-05-09T18:32:41.261Z,25.30
2019-05-09T18:35:15.586Z,25.30
2019-05-09T18:37:48.122Z,25.30
2019-05-09T18:40:21.007Z,25.30
2019-05-09T18:42:52.031Z,25.30
2019-05-09T18:45:24.822Z,25.30
2019-05-09T18:47:57.953Z,25.30
2019-05-09T18:50:28.507Z,25.30
2019-05-09T18:52:59.621Z,25.30
2019-05-09T18:55:30.521Z,25.30
2019-05-09T18:58:01.500Z,25.30
2019-05-09T19:00:32.781Z,25.30
2019-05-09T19:03:03.798Z,25.30
2019-05-09T19:05:34.784Z,25.30
2019-05-09T19:08:05.890Z,25.30
2019-05-09T19:10:36.647Z,25.30
2019-05-09T19:13:07.548Z,25.30
2019-05-09T19:15:40.200Z,25.30
2019-05-09T19:18:12.615Z,25.30
2019-05-09T19:20:44.833Z,25.30
2019-05-09T19:23:15.873Z,25.30
2019-05-09T19:25:46.925Z,25.30
2019-05-09T19:28:18.195Z,25.30
2019-05-09T19:30:49.277Z,25.30
2019-05-09T19:33:20.194Z,25.30
2019-05-09T19:35:51.058Z,25.20
2019-05-09T19:38:21.991Z,25.30
2019-05-09T19:40:52.908Z,25.30
2019-05-09T19:43:23.994Z,25.30
2019-05-09T19:45:54.968Z,25.30
2019-05-09T19:48:25.926Z,25.30
2019-05-09T19:50:56.785Z,25.30
2019-05-09T19:53:27.719Z,25.30
2019-05-09T19:55:58.984Z,25.30
2019-05-09T19:58:30.026Z,25.40
2019-05-09T20:01:01.224Z,25.40
2019-05-09T20:03:31.955Z,25.30
2019-05-09T20:06:02.898Z,25.30
2019-05-09T20:08:34.421Z,25.30
2019-05-09T20:11:06.680Z,25.30
2019-05-09T20:13:38.706Z,25.40
2019-05-09T20:16:10.006Z,25.30
2019-05-09T20:18:40.700Z,25.30
2019-05-09T20:21:11.643Z,25.30
2019-05-09T20:23:42.748Z,25.30
2019-05-09T20:26:13.733Z,25.30
2019-05-09T20:28:44.731Z,25.30
2019-05-09T20:31:15.869Z,25.40
2019-05-09T20:33:46.843Z,25.30
2019-05-09T20:36:17.726Z,25.30
2019-05-09T20:38:49.105Z,25.30
2019-05-09T20:41:20.227Z,25.30
2019-05-09T20:43:51.261Z,25.30
2019-05-09T20:46:22.677Z,25.30
2019-05-09T20:48:53.686Z,25.30
2019-05-09T20:51:24.826Z,25.30
2019-05-09T20:53:56.149Z,25.30
2019-05-09T20:56:27.371Z,25.30
2019-05-09T20:58:58.668Z,25.30
2019-05-09T21:01:29.760Z,25.40
2019-05-09T21:04:00.946Z,25.30
2019-05-09T21:06:32.014Z,25.30
2019-05-09T21:09:03.441Z,25.30
2019-05-09T21:11:34.606Z,25.30
2019-05-09T21:14:05.867Z,25.30
2019-05-09T21:16:37.390Z,25.30
2019-05-09T21:19:08.415Z,25.30
2019-05-09T21:21:39.385Z,25.30
2019-05-09T21:24:10.596Z,25.30
2019-05-09T21:26:41.735Z,25.30
2019-05-09T21:29:12.551Z,25.30
2019-05-09T21:31:43.917Z,25.30
2019-05-09T21:34:14.926Z,25.30
2019-05-09T21:36:45.888Z,25.30
2019-05-09T21:39:17.163Z,25.30
2019-05-09T21:41:48.094Z,25.40
2019-05-09T21:44:18.888Z,25.40
2019-05-09T21:46:49.881Z,25.40
2019-05-09T21:49:20.909Z,25.40
2019-05-09T21:51:51.739Z,25.40
2019-05-09T21:54:22.649Z,25.40
2019-05-09T21:56:53.554Z,25.40
2019-05-09T21:59:24.348Z,25.40
2019-05-09T22:01:55.242Z,25.50
2019-05-09T22:04:26.237Z,25.40
2019-05-09T22:06:57.157Z,25.50
2019-05-09T22:09:28.412Z,25.50
2019-05-09T22:11:59.333Z,25.50
2019-05-09T22:14:30.175Z,25.50
2019-05-09T22:17:02.541Z,25.50
2019-05-09T22:19:33.444Z,25.50
2019-05-09T22:22:04.380Z,25.50
2019-05-09T22:24:35.608Z,25.50
2019-05-09T22:27:06.726Z,25.50
2019-05-09T22:29:37.732Z,25.50
2019-05-09T22:34:56.317Z,25.50
2019-05-09T22:37:27.339Z,25.50
2019-05-09T22:39:58.284Z,25.50
2019-05-09T22:42:28.980Z,25.50
2019-05-09T22:45:00.026Z,25.50
2019-05-09T22:47:30.701Z,25.50
2019-05-09T22:50:03.408Z,25.50
2019-05-09T22:52:33.792Z,25.50
2019-05-09T22:55:04.879Z,25.50
2019-05-09T22:57:35.756Z,25.50
2019-05-09T23:00:08.249Z,25.50
2019-05-09T23:02:39.435Z,25.50
2019-05-09T23:05:10.402Z,25.50
2019-05-09T23:07:41.236Z,25.50
2019-05-09T23:12:53.599Z,25.50
2019-05-09T23:15:24.494Z,25.50
2019-05-09T23:17:55.402Z,25.50
2019-05-09T23:20:27.528Z,25.50
2019-05-09T23:22:58.527Z,25.50
2019-05-09T23:25:29.395Z,25.50
2019-05-09T23:28:00.743Z,25.50
2019-05-09T23:30:31.626Z,25.50
2019-05-09T23:33:03.096Z,25.50
2019-05-09T23:35:34.148Z,25.50
2019-05-09T23:38:05.040Z,25.50
2019-05-09T23:40:35.998Z,25.50
2019-05-09T23:43:06.934Z,25.60
2019-05-09T23:45:37.698Z,25.60
2019-05-09T23:48:08.741Z,25.60
2019-05-09T23:50:39.650Z,25.70
2019-05-09T23:53:10.468Z,25.70
2019-05-09T23:55:42.784Z,25.70
2019-05-09T23:58:14.993Z,25.70
